Milk River, Canada
Current Conditions -  °F | °C
As of 4:56 AM on Thursday 23 Oct 2014 (Local Time) from KCTB Reporting Station
Few Clouds Few Clouds  
Wind Chill: 54°   Ceiling: Unl
Heat Index: 54°   Visibility: 10mi
Dew Point: 35°   Wind: 7mph
Humidity: 49%   Direction: NA
Pressure: 29.75"   Gusts: NA
Location:  49.15°N, 112.09°W
Report Text: KCTB 231056Z AUTO VRB06KT 10SM FEW080 12/02 A2975 RMK AO2 SLP061 T01220017
Loading
Personal Weather Stations






























Interactive Weather Map
Tropical Storm Tracking
New forecast layout! Learn more

10-Day Weather Forecast

Advertisements
Track Severe Weather on mobile